Time,TemperatureF,DewpointF,PressureIn,WindDirection,WindDirectionDegrees,WindSpeedMPH,WindSpeedGustMPH,Humidity,HourlyPrecipIn,Conditions,Clouds,dailyrainin,SoftwareType,DateUTC
2013-06-21 00:02:00,56.1,47.2,29.94,WNW,285,0.0,1.9,72,0.00,,CLR,0.00,VWS V14.01,2013-06-21 07:02:00,
2013-06-21 00:07:00,55.9,47.0,29.94,WNW,285,0.0,1.9,72,0.00,,CLR,0.00,VWS V14.01,2013-06-21 07:07:00,
2013-06-21 00:12:00,55.8,46.9,29.94,WNW,285,0.0,1.9,72,0.00,,CLR,0.00,VWS V14.01,2013-06-21 07:12:00,
2013-06-21 00:17:00,55.8,46.9,29.94,NW,312,0.0,0.0,72,0.00,,CLR,0.00,VWS V14.01,2013-06-21 07:17:00,
2013-06-21 00:22:00,55.7,46.8,29.94,NW,312,0.0,0.0,72,0.00,,CLR,0.00,VWS V14.01,2013-06-21 07:22:00,
2013-06-21 00:27:00,55.7,46.8,29.94,West,271,0.0,1.9,72,0.00,,CLR,0.00,VWS V14.01,2013-06-21 07:27:00,
2013-06-21 00:32:00,55.7,46.8,29.94,West,271,0.0,1.9,72,0.00,,CLR,0.00,VWS V14.01,2013-06-21 07:32:00,
2013-06-21 00:37:00,55.4,46.6,29.94,West,271,0.0,1.9,72,0.00,,CLR,0.00,VWS V14.01,2013-06-21 07:37:00,
2013-06-21 00:42:00,55.2,46.4,29.94,West,271,0.0,1.9,72,0.00,,CLR,0.00,VWS V14.01,2013-06-21 07:42:00,
2013-06-21 00:47:00,55.1,46.6,29.94,West,271,0.0,0.0,73,0.00,,CLR,0.00,VWS V14.01,2013-06-21 07:47:00,
2013-06-21 00:52:00,54.9,46.8,29.94,West,271,0.0,0.0,74,0.00,,CLR,0.00,VWS V14.01,2013-06-21 07:52:00,
2013-06-21 00:57:00,54.7,46.6,29.94,West,271,0.0,0.0,74,0.00,,CLR,0.00,VWS V14.01,2013-06-21 07:57:00,
2013-06-21 01:02:00,54.5,46.4,29.94,West,271,0.0,0.0,74,0.00,,CLR,0.00,VWS V14.01,2013-06-21 08:02:00,
2013-06-21 01:07:00,54.3,46.6,29.94,West,271,0.0,0.0,75,0.00,,CLR,0.00,VWS V14.01,2013-06-21 08:07:00,
2013-06-21 01:12:00,54.1,46.3,29.94,West,271,0.0,0.0,75,0.00,,CLR,0.00,VWS V14.01,2013-06-21 08:12:00,
2013-06-21 01:17:00,53.8,46.1,29.94,West,271,0.0,0.0,75,0.00,,CLR,0.00,VWS V14.01,2013-06-21 08:17:00,
2013-06-21 01:22:00,53.5,46.1,29.94,West,271,0.0,0.0,76,0.00,,CLR,0.00,VWS V14.01,2013-06-21 08:22:00,
2013-06-21 01:27:00,53.2,46.2,29.94,West,271,0.0,0.0,77,0.00,,CLR,0.00,VWS V14.01,2013-06-21 08:27:00,
2013-06-21 01:32:00,53.1,46.4,29.94,West,271,0.0,0.0,78,0.00,,CLR,0.00,VWS V14.01,2013-06-21 08:32:00,
2013-06-21 01:37:00,53.0,46.3,29.94,West,271,0.0,0.0,78,0.00,,CLR,0.00,VWS V14.01,2013-06-21 08:37:00,
2013-06-21 01:42:00,52.8,46.5,29.94,West,271,0.0,0.0,79,0.00,,CLR,0.00,VWS V14.01,2013-06-21 08:42:00,
2013-06-21 01:47:00,52.7,46.4,29.94,West,271,0.0,0.0,79,0.00,,CLR,0.00,VWS V14.01,2013-06-21 08:47:00,
2013-06-21 01:52:00,52.5,45.8,29.94,West,271,0.0,0.0,78,0.00,,CLR,0.00,VWS V14.01,2013-06-21 08:52:00,
2013-06-21 01:57:00,52.0,45.4,29.93,West,271,0.0,0.0,78,0.00,,CLR,0.00,VWS V14.01,2013-06-21 08:57:00,
2013-06-21 02:03:00,51.7,45.8,29.93,West,271,0.0,0.0,80,0.00,,CLR,0.00,VWS V14.01,2013-06-21 09:03:00,
2013-06-21 02:08:00,51.8,46.5,29.94,West,271,0.0,0.0,82,0.00,,CLR,0.00,VWS V14.01,2013-06-21 09:08:00,
2013-06-21 02:13:00,52.2,46.5,29.94,West,271,0.0,0.0,81,0.00,,CLR,0.00,VWS V14.01,2013-06-21 09:13:00,
2013-06-21 02:18:00,52.2,46.5,29.94,West,271,0.0,0.0,81,0.00,,CLR,0.00,VWS V14.01,2013-06-21 09:18:00,
2013-06-21 02:26:00,51.9,46.3,29.93,West,271,0.0,0.0,81,0.00,,CLR,0.00,VWS V14.01,2013-06-21 09:26:00,
2013-06-21 02:31:00,51.7,46.4,29.93,West,271,0.0,0.0,82,0.00,,CLR,0.00,VWS V14.01,2013-06-21 09:31:00,
2013-06-21 02:36:00,51.6,46.2,29.93,West,271,0.0,0.0,82,0.00,,CLR,0.00,VWS V14.01,2013-06-21 09:36:00,
2013-06-21 02:41:00,51.5,46.2,29.93,West,271,0.0,0.0,82,0.00,,CLR,0.00,VWS V14.01,2013-06-21 09:41:00,
2013-06-21 02:46:00,51.5,46.5,29.93,West,271,0.0,0.0,83,0.00,,CLR,0.00,VWS V14.01,2013-06-21 09:46:00,
2013-06-21 02:51:00,51.4,46.4,29.93,West,271,0.0,0.0,83,0.00,,CLR,0.00,VWS V14.01,2013-06-21 09:51:00,
2013-06-21 02:56:00,51.4,46.4,29.93,West,271,0.0,0.0,83,0.00,,CLR,0.00,VWS V14.01,2013-06-21 09:56:00,
2013-06-21 03:01:00,51.4,46.4,29.93,West,271,0.0,0.0,83,0.00,,CLR,0.00,VWS V14.01,2013-06-21 10:01:00,
2013-06-21 03:06:00,51.3,46.3,29.93,West,271,0.0,0.0,83,0.00,,CLR,0.00,VWS V14.01,2013-06-21 10:06:00,
2013-06-21 03:11:00,51.1,46.1,29.93,West,271,0.0,0.0,83,0.00,,CLR,0.00,VWS V14.01,2013-06-21 10:11:00,
2013-06-21 03:16:00,50.9,46.0,29.93,West,271,0.0,0.0,83,0.00,,CLR,0.00,VWS V14.01,2013-06-21 10:16:00,
2013-06-21 03:21:00,50.8,46.1,29.93,West,271,0.0,0.0,84,0.00,,CLR,0.00,VWS V14.01,2013-06-21 10:21:00,
2013-06-21 03:26:00,50.7,46.3,29.93,West,271,0.0,0.0,85,0.00,,CLR,0.00,VWS V14.01,2013-06-21 10:26:00,
2013-06-21 03:31:00,50.6,46.2,29.93,West,271,0.0,0.0,85,0.00,,CLR,0.00,VWS V14.01,2013-06-21 10:31:00,
2013-06-21 03:36:00,50.6,46.2,29.93,West,271,0.0,0.0,85,0.00,,CLR,0.00,VWS V14.01,2013-06-21 10:36:00,
2013-06-21 03:41:00,50.4,46.1,29.93,West,271,0.0,0.0,85,0.00,,CLR,0.00,VWS V14.01,2013-06-21 10:41:00,
2013-06-21 03:46:00,50.3,46.0,29.93,West,271,0.0,0.0,85,0.00,,CLR,0.00,VWS V14.01,2013-06-21 10:46:00,
2013-06-21 03:51:00,50.3,46.0,29.93,West,271,0.0,0.0,85,0.00,,CLR,0.00,VWS V14.01,2013-06-21 10:51:00,
2013-06-21 03:56:00,50.2,45.9,29.93,West,271,0.0,0.0,85,0.00,,CLR,0.00,VWS V14.01,2013-06-21 10:56:00,
2013-06-21 04:01:00,50.0,45.7,29.93,West,271,0.0,0.0,85,0.00,,CLR,0.00,VWS V14.01,2013-06-21 11:01:00,
2013-06-21 04:06:00,49.8,45.8,29.93,West,271,0.0,0.0,86,0.00,,CLR,0.00,VWS V14.01,2013-06-21 11:06:00,
2013-06-21 04:12:00,49.9,45.9,29.93,West,271,0.0,0.0,86,0.00,,CLR,0.00,VWS V14.01,2013-06-21 11:12:00,
2013-06-21 04:17:00,49.8,45.8,29.93,West,271,0.0,0.0,86,0.00,,CLR,0.00,VWS V14.01,2013-06-21 11:17:00,
2013-06-21 04:22:00,49.8,46.1,29.93,West,271,0.0,0.0,87,0.00,,CLR,0.00,VWS V14.01,2013-06-21 11:22:00,
2013-06-21 04:27:00,49.8,46.1,29.93,West,271,0.0,0.0,87,0.00,,CLR,0.00,VWS V14.01,2013-06-21 11:27:00,
2013-06-21 04:32:00,49.8,46.0,29.93,West,271,0.0,0.0,87,0.00,,CLR,0.00,VWS V14.01,2013-06-21 11:32:00,
2013-06-21 04:37:00,49.8,46.1,29.93,West,271,0.0,0.0,87,0.00,,CLR,0.00,VWS V14.01,2013-06-21 11:37:00,
2013-06-21 04:42:00,49.9,46.2,29.92,West,271,0.0,0.0,87,0.00,,CLR,0.00,VWS V14.01,2013-06-21 11:42:00,
2013-06-21 04:47:00,49.9,46.2,29.93,West,271,0.0,0.0,87,0.00,,CLR,0.00,VWS V14.01,2013-06-21 11:47:00,
2013-06-21 04:52:00,50.0,46.3,29.93,West,271,0.0,0.0,87,0.00,,CLR,0.00,VWS V14.01,2013-06-21 11:52:00,
2013-06-21 04:57:00,50.1,46.4,29.93,West,271,0.0,0.0,87,0.00,,CLR,0.00,VWS V14.01,2013-06-21 11:57:00,
2013-06-21 05:02:00,50.3,46.3,29.93,West,271,0.0,0.0,86,0.00,,CLR,0.00,VWS V14.01,2013-06-21 12:02:00,
2013-06-21 05:07:00,50.4,46.1,29.93,West,271,0.0,0.0,85,0.00,,CLR,0.00,VWS V14.01,2013-06-21 12:07:00,
2013-06-21 05:12:00,50.1,45.8,29.93,West,271,0.0,0.0,85,0.00,,CLR,0.00,VWS V14.01,2013-06-21 12:12:00,
2013-06-21 05:17:00,49.9,45.6,29.93,West,271,0.0,0.0,85,0.00,,CLR,0.00,VWS V14.01,2013-06-21 12:17:00,
2013-06-21 05:22:00,49.8,46.1,29.93,West,271,0.0,0.0,87,0.00,,CLR,0.00,VWS V14.01,2013-06-21 12:22:00,
2013-06-21 05:27:00,49.8,46.1,29.93,West,271,0.0,0.0,87,0.00,,CLR,0.00,VWS V14.01,2013-06-21 12:27:00,
2013-06-21 05:32:00,49.8,45.8,29.93,West,271,0.0,0.0,86,0.00,,CLR,0.00,VWS V14.01,2013-06-21 12:32:00,
2013-06-21 05:37:00,49.7,45.7,29.94,West,271,0.0,0.0,86,0.00,,CLR,0.00,VWS V14.01,2013-06-21 12:37:00,
2013-06-21 05:42:00,49.5,45.8,29.94,West,271,0.0,0.0,87,0.00,,CLR,0.00,VWS V14.01,2013-06-21 12:42:00,
2013-06-21 05:47:00,49.3,45.6,29.93,West,271,0.0,0.0,87,0.00,,CLR,0.00,VWS V14.01,2013-06-21 12:47:00,
2013-06-21 05:52:00,49.2,45.5,29.94,West,271,0.0,0.0,87,0.00,,CLR,0.00,VWS V14.01,2013-06-21 12:52:00,
2013-06-21 05:57:00,49.0,45.3,29.94,West,271,0.0,0.0,87,0.00,,CLR,0.00,VWS V14.01,2013-06-21 12:57:00,
2013-06-21 06:02:00,49.0,45.7,29.94,West,271,0.0,0.0,88,0.00,,CLR,0.00,VWS V14.01,2013-06-21 13:02:00,
2013-06-21 06:07:00,49.2,46.1,29.94,West,271,0.0,0.0,89,0.00,,CLR,0.00,VWS V14.01,2013-06-21 13:07:00,
2013-06-21 06:12:00,49.3,46.2,29.94,West,271,0.0,0.0,89,0.00,,CLR,0.00,VWS V14.01,2013-06-21 13:12:00,
2013-06-21 06:17:00,49.8,46.7,29.94,West,271,0.0,0.0,89,0.00,,CLR,0.00,VWS V14.01,2013-06-21 13:17:00,
2013-06-21 06:22:00,50.5,47.4,29.95,West,271,0.0,0.0,89,0.00,,CLR,0.00,VWS V14.01,2013-06-21 13:22:00,
2013-06-21 06:27:00,51.4,48.2,29.95,West,271,0.0,0.0,89,0.00,,CLR,0.00,VWS V14.01,2013-06-21 13:27:00,
2013-06-21 06:32:00,52.2,48.1,29.95,West,271,0.0,0.0,86,0.00,,CLR,0.00,VWS V14.01,2013-06-21 13:32:00,
2013-06-21 06:37:00,52.7,48.0,29.95,West,271,0.0,0.0,84,0.00,,CLR,0.00,VWS V14.01,2013-06-21 13:37:00,
2013-06-21 06:42:00,53.7,49.0,29.95,West,271,0.0,0.0,84,0.00,,CLR,0.00,VWS V14.01,2013-06-21 13:42:00,
2013-06-21 06:47:00,54.4,49.1,29.95,West,271,0.0,0.0,82,0.00,,CLR,0.00,VWS V14.01,2013-06-21 13:47:00,
2013-06-21 06:52:00,54.8,48.4,29.95,West,271,0.0,0.0,79,0.00,,CLR,0.00,VWS V14.01,2013-06-21 13:52:00,
2013-06-21 06:57:00,54.7,48.0,29.95,West,271,0.0,0.0,78,0.00,,CLR,0.00,VWS V14.01,2013-06-21 13:57:00,
2013-06-21 07:03:00,54.7,48.0,29.95,West,271,0.0,0.0,78,0.00,,CLR,0.00,VWS V14.01,2013-06-21 14:03:00,
2013-06-21 07:08:00,54.5,48.2,29.95,West,271,0.0,0.0,79,0.00,,CLR,0.00,VWS V14.01,2013-06-21 14:08:00,
2013-06-21 07:13:00,54.4,48.1,29.95,West,271,0.0,0.0,79,0.00,,CLR,0.00,VWS V14.01,2013-06-21 14:13:00,
2013-06-21 07:18:00,54.3,48.3,29.95,West,271,0.0,0.0,80,0.00,,CLR,0.00,VWS V14.01,2013-06-21 14:18:00,
2013-06-21 07:23:00,54.3,48.3,29.95,West,271,0.0,0.0,80,0.00,,CLR,0.00,VWS V14.01,2013-06-21 14:23:00,
2013-06-21 07:28:00,54.6,48.2,29.95,West,271,0.0,1.9,79,0.00,,CLR,0.00,VWS V14.01,2013-06-21 14:28:00,
2013-06-21 07:33:00,55.0,48.6,29.95,West,271,0.0,0.0,79,0.00,,CLR,0.00,VWS V14.01,2013-06-21 14:33:00,
2013-06-21 07:38:00,55.2,48.9,29.95,West,264,0.0,1.9,79,0.00,,CLR,0.00,VWS V14.01,2013-06-21 14:38:00,
2013-06-21 07:43:00,55.7,49.3,29.96,West,267,0.0,1.9,79,0.00,,CLR,0.00,VWS V14.01,2013-06-21 14:43:00,
2013-06-21 07:48:00,56.5,49.4,29.96,West,267,0.0,0.0,77,0.00,,CLR,0.00,VWS V14.01,2013-06-21 14:48:00,
2013-06-21 07:53:00,57.8,50.6,29.96,West,267,0.0,1.9,77,0.00,,CLR,0.00,VWS V14.01,2013-06-21 14:53:00,
2013-06-21 07:58:00,59.4,51.1,29.96,SSW,212,0.0,1.9,74,0.00,,CLR,0.00,VWS V14.01,2013-06-21 14:58:00,
2013-06-21 08:03:00,60.9,50.7,29.96,SW,222,0.0,1.9,69,0.00,,CLR,0.00,VWS V14.01,2013-06-21 15:03:00,
2013-06-21 08:09:00,62.4,51.3,29.96,SW,222,0.0,1.9,67,0.00,,CLR,0.00,VWS V14.01,2013-06-21 15:09:00,
2013-06-21 08:14:00,63.9,51.5,29.96,SW,222,0.0,1.9,64,0.00,,CLR,0.00,VWS V14.01,2013-06-21 15:14:00,
2013-06-21 08:19:00,64.8,50.1,29.96,WSW,256,1.9,1.9,59,0.00,,CLR,0.00,VWS V14.01,2013-06-21 15:19:00,
2013-06-21 08:24:00,64.9,50.2,29.96,SW,219,0.0,3.8,59,0.00,,CLR,0.00,VWS V14.01,2013-06-21 15:24:00,
2013-06-21 08:29:00,65.3,50.2,29.96,SW,225,0.0,3.8,58,0.00,,CLR,0.00,VWS V14.01,2013-06-21 15:29:00,
2013-06-21 08:34:00,66.0,49.8,29.96,WSW,246,0.0,1.9,56,0.00,,CLR,0.00,VWS V14.01,2013-06-21 15:34:00,
2013-06-21 08:39:00,66.9,51.2,29.96,WSW,253,0.0,1.9,57,0.00,,CLR,0.00,VWS V14.01,2013-06-21 15:39:00,
2013-06-21 08:44:00,67.9,49.7,29.96,SSW,200,0.0,1.9,52,0.00,,CLR,0.00,VWS V14.01,2013-06-21 15:44:00,
2013-06-21 08:49:00,68.8,49.5,29.96,SSW,206,0.0,1.9,50,0.00,,CLR,0.00,VWS V14.01,2013-06-21 15:49:00,
2013-06-21 08:54:00,69.2,49.2,29.96,West,278,0.0,3.8,49,0.00,,CLR,0.00,VWS V14.01,2013-06-21 15:54:00,
2013-06-21 08:59:00,69.2,48.1,29.96,West,272,1.9,5.7,47,0.00,,CLR,0.00,VWS V14.01,2013-06-21 15:59:00,
2013-06-21 09:04:00,68.6,48.7,29.96,WNW,291,1.9,9.5,49,0.00,,CLR,0.00,VWS V14.01,2013-06-21 16:04:00,
2013-06-21 09:09:00,68.4,47.4,29.96,West,269,0.0,11.4,47,0.00,,CLR,0.00,VWS V14.01,2013-06-21 16:09:00,
2013-06-21 09:14:00,68.6,47.6,29.96,WNW,295,0.0,11.4,47,0.00,,CLR,0.00,VWS V14.01,2013-06-21 16:14:00,
2013-06-21 09:19:00,68.8,47.7,29.96,West,274,1.9,11.4,47,0.00,,CLR,0.00,VWS V14.01,2013-06-21 16:19:00,
2013-06-21 09:25:00,69.4,48.3,29.96,WNW,287,5.7,11.4,47,0.00,,CLR,0.00,VWS V14.01,2013-06-21 16:25:00,
2013-06-21 09:30:00,69.7,47.4,29.95,West,277,1.9,5.7,45,0.00,,CLR,0.00,VWS V14.01,2013-06-21 16:30:00,
2013-06-21 09:35:00,70.0,47.1,29.95,West,260,1.9,7.6,44,0.00,,CLR,0.00,VWS V14.01,2013-06-21 16:35:00,
2013-06-21 09:40:00,70.1,49.0,29.95,WNW,287,1.9,7.6,47,0.00,,CLR,0.00,VWS V14.01,2013-06-21 16:40:00,
2013-06-21 09:45:00,70.6,47.6,29.95,NNW,328,1.9,3.8,44,0.00,,CLR,0.00,VWS V14.01,2013-06-21 16:45:00,
2013-06-21 09:50:00,70.6,47.1,29.95,NNW,328,1.9,9.5,43,0.00,,CLR,0.00,VWS V14.01,2013-06-21 16:50:00,
2013-06-21 09:55:00,71.2,46.3,29.95,West,279,3.8,9.5,41,0.00,,CLR,0.00,VWS V14.01,2013-06-21 16:55:00,
2013-06-21 10:00:00,71.7,46.8,29.95,West,264,0.0,3.8,41,0.00,,CLR,0.00,VWS V14.01,2013-06-21 17:00:00,
2013-06-21 10:06:00,72.3,48.6,29.95,West,281,5.7,7.6,43,0.00,,CLR,0.00,VWS V14.01,2013-06-21 17:06:00,
2013-06-21 10:11:00,72.5,46.2,29.95,WNW,293,3.8,9.5,39,0.00,,CLR,0.00,VWS V14.01,2013-06-21 17:11:00,
2013-06-21 10:16:00,72.8,47.8,29.95,WNW,291,7.6,7.6,41,0.00,,CLR,0.00,VWS V14.01,2013-06-21 17:16:00,
2013-06-21 10:21:00,73.0,47.3,29.94,NNW,345,5.7,9.5,40,0.00,,CLR,0.00,VWS V14.01,2013-06-21 17:21:00,
2013-06-21 10:28:00,73.4,46.3,29.94,West,262,1.9,13.3,38,0.00,,CLR,0.00,VWS V14.01,2013-06-21 17:28:00,
2013-06-21 10:33:00,73.6,46.5,29.94,WSW,248,3.8,5.7,38,0.00,,CLR,0.00,VWS V14.01,2013-06-21 17:33:00,
2013-06-21 10:38:00,74.1,45.4,29.94,NNE,19,1.9,5.7,36,0.00,,CLR,0.00,VWS V14.01,2013-06-21 17:38:00,
2013-06-21 10:44:00,75.2,47.2,29.94,NNW,338,1.9,5.7,37,0.00,,CLR,0.00,VWS V14.01,2013-06-21 17:44:00,
2013-06-21 10:46:00,75.5,46.0,29.94,WSW,245,3.8,5.7,35,0.00,,CLR,0.00,VWS V14.01,2013-06-21 17:46:00,
2013-06-21 10:47:00,75.5,46.0,29.94,ENE,72,0.0,5.7,35,0.00,,CLR,0.00,VWS V14.01,2013-06-21 17:47:00,
2013-06-21 10:49:00,75.7,46.1,29.94,ENE,66,0.0,5.7,35,0.00,,CLR,0.00,VWS V14.01,2013-06-21 17:49:00,
2013-06-21 10:51:00,76.1,47.3,29.94,North,358,0.0,5.7,36,0.00,,CLR,0.00,VWS V14.01,2013-06-21 17:51:00,
2013-06-21 10:52:00,76.3,46.7,29.94,WNW,295,1.9,5.7,35,0.00,,CLR,0.00,VWS V14.01,2013-06-21 17:52:00,
2013-06-21 10:58:00,76.2,45.8,29.94,West,281,1.9,9.5,34,0.00,,CLR,0.00,VWS V14.01,2013-06-21 17:58:00,
2013-06-21 11:03:00,76.8,47.1,29.94,SE,124,1.9,3.8,35,0.00,,CLR,0.00,VWS V14.01,2013-06-21 18:03:00,
2013-06-21 11:08:00,76.9,46.5,29.94,WNW,286,0.0,5.7,34,0.00,,CLR,0.00,VWS V14.01,2013-06-21 18:08:00,
2013-06-21 11:14:00,77.7,47.9,29.94,West,278,1.9,5.7,35,0.00,,CLR,0.00,VWS V14.01,2013-06-21 18:14:00,
2013-06-21 11:19:00,78.9,46.6,29.94,WNW,285,0.0,3.8,32,0.00,,CLR,0.00,VWS V14.01,2013-06-21 18:19:00,
2013-06-21 11:23:00,79.1,45.0,29.94,WSW,249,5.7,5.7,30,0.00,,CLR,0.00,VWS V14.01,2013-06-21 18:23:00,
2013-06-21 11:24:00,78.9,44.9,29.94,West,264,0.0,7.6,30,0.00,,CLR,0.00,VWS V14.01,2013-06-21 18:24:00,
2013-06-21 11:26:00,78.7,46.3,29.94,West,278,0.0,7.6,32,0.00,,CLR,0.00,VWS V14.01,2013-06-21 18:26:00,
2013-06-21 11:29:00,78.8,48.1,29.94,SW,214,0.0,7.6,34,0.00,,CLR,0.00,VWS V14.01,2013-06-21 18:29:00,
2013-06-21 11:31:00,79.1,48.3,29.94,SSW,201,3.8,5.7,34,0.00,,CLR,0.00,VWS V14.01,2013-06-21 18:31:00,
2013-06-21 11:36:00,79.9,47.5,29.94,East,79,0.0,5.7,32,0.00,,CLR,0.00,VWS V14.01,2013-06-21 18:36:00,
2013-06-21 11:43:00,80.6,46.4,29.94,West,280,3.8,7.6,30,0.00,,CLR,0.00,VWS V14.01,2013-06-21 18:43:00,
2013-06-21 11:45:00,80.7,45.5,29.94,WNW,291,5.7,7.6,29,0.00,,CLR,0.00,VWS V14.01,2013-06-21 18:45:00,
2013-06-21 11:46:00,80.5,44.5,29.94,NW,309,1.9,7.6,28,0.00,,CLR,0.00,VWS V14.01,2013-06-21 18:46:00,
2013-06-21 11:48:00,80.3,44.2,29.94,South,172,1.9,7.6,28,0.00,,CLR,0.00,VWS V14.01,2013-06-21 18:48:00,
2013-06-21 11:49:00,80.3,45.2,29.94,SW,231,1.9,7.6,29,0.00,,CLR,0.00,VWS V14.01,2013-06-21 18:49:00,
2013-06-21 11:51:00,80.4,45.2,29.94,SSW,200,0.0,7.6,29,0.00,,CLR,0.00,VWS V14.01,2013-06-21 18:51:00,
2013-06-21 11:56:00,80.7,45.5,29.93,West,277,1.9,7.6,29,0.00,,CLR,0.00,VWS V14.01,2013-06-21 18:56:00,
2013-06-21 12:03:00,80.4,44.3,29.93,SSW,200,0.0,3.8,28,0.00,,CLR,0.00,VWS V14.01,2013-06-21 19:03:00,
2013-06-21 12:08:00,80.4,45.3,29.93,South,174,1.9,7.6,29,0.00,,CLR,0.00,VWS V14.01,2013-06-21 19:08:00,
2013-06-21 12:13:00,80.8,46.5,29.93,West,276,3.8,7.6,30,0.00,,CLR,0.00,VWS V14.01,2013-06-21 19:13:00,
2013-06-21 12:18:00,81.8,44.6,29.93,SSW,198,1.9,3.8,27,0.00,,CLR,0.00,VWS V14.01,2013-06-21 19:18:00,
2013-06-21 12:23:00,82.4,44.1,29.93,SSW,204,1.9,3.8,26,0.00,,CLR,0.00,VWS V14.01,2013-06-21 19:23:00,
2013-06-21 12:28:00,82.9,44.5,29.93,SSW,210,3.8,7.6,26,0.00,,CLR,0.00,VWS V14.01,2013-06-21 19:28:00,
2013-06-21 12:31:00,83.2,45.7,29.93,WNW,285,5.7,5.7,27,0.00,,CLR,0.00,VWS V14.01,2013-06-21 19:31:00,
2013-06-21 12:36:00,83.1,43.6,29.93,WNW,288,1.9,5.7,25,0.00,,CLR,0.00,VWS V14.01,2013-06-21 19:36:00,
2013-06-21 12:41:00,83.0,46.5,29.92,WSW,242,3.8,7.6,28,0.00,,CLR,0.00,VWS V14.01,2013-06-21 19:41:00,
2013-06-21 12:46:00,83.1,48.5,29.93,SSW,203,1.9,3.8,30,0.00,,CLR,0.00,VWS V14.01,2013-06-21 19:46:00,
2013-06-21 12:51:00,83.1,46.6,29.93,SW,219,3.8,5.7,28,0.00,,CLR,0.00,VWS V14.01,2013-06-21 19:51:00,
2013-06-21 12:56:00,83.1,45.7,29.93,West,278,1.9,9.5,27,0.00,,CLR,0.00,VWS V14.01,2013-06-21 19:56:00,
2013-06-21 13:01:00,82.9,46.5,29.93,WNW,287,1.9,5.7,28,0.00,,CLR,0.00,VWS V14.01,2013-06-21 20:01:00,
2013-06-21 13:06:00,83.2,47.7,29.93,WSW,245,1.9,5.7,29,0.00,,CLR,0.00,VWS V14.01,2013-06-21 20:06:00,
2013-06-21 13:11:00,83.1,46.6,29.92,West,276,0.0,9.5,28,0.00,,CLR,0.00,VWS V14.01,2013-06-21 20:11:00,
2013-06-21 13:16:00,82.7,45.3,29.92,SW,221,1.9,11.4,27,0.00,,CLR,0.00,VWS V14.01,2013-06-21 20:16:00,
2013-06-21 13:17:00,82.6,48.1,29.93,West,281,1.9,11.4,30,0.00,,CLR,0.00,VWS V14.01,2013-06-21 20:17:00,
2013-06-21 13:22:00,83.0,50.1,29.93,West,269,3.8,11.4,32,0.00,,CLR,0.00,VWS V14.01,2013-06-21 20:22:00,
2013-06-21 13:27:00,83.2,48.5,29.93,SSW,211,3.8,13.3,30,0.00,,CLR,0.00,VWS V14.01,2013-06-21 20:27:00,
2013-06-21 13:32:00,83.1,45.7,29.93,WSW,242,0.0,11.4,27,0.00,,CLR,0.00,VWS V14.01,2013-06-21 20:32:00,
2013-06-21 13:37:00,82.8,45.4,29.92,SE,139,1.9,17.1,27,0.00,,CLR,0.00,VWS V14.01,2013-06-21 20:37:00,
2013-06-21 13:43:00,82.7,45.3,29.92,SE,146,1.9,17.1,27,0.00,,CLR,0.00,VWS V14.01,2013-06-21 20:43:00,
2013-06-21 13:49:00,82.2,44.0,29.92,SE,139,5.7,15.2,26,0.00,,CLR,0.00,VWS V14.01,2013-06-21 20:49:00,
2013-06-21 13:54:00,81.7,45.5,29.92,ESE,123,1.9,15.2,28,0.00,,CLR,0.00,VWS V14.01,2013-06-21 20:54:00,
2013-06-21 13:59:00,82.3,44.1,29.92,SSW,194,7.6,15.2,26,0.00,,CLR,0.00,VWS V14.01,2013-06-21 20:59:00,
2013-06-21 14:04:00,82.5,46.2,29.92,SE,145,3.8,9.5,28,0.00,,CLR,0.00,VWS V14.01,2013-06-21 21:04:00,
2013-06-21 14:06:00,82.7,45.3,29.92,SSW,205,5.7,9.5,27,0.00,,CLR,0.00,VWS V14.01,2013-06-21 21:06:00,
2013-06-21 14:11:00,82.5,43.2,29.92,SSW,212,0.0,13.3,25,0.00,,CLR,0.00,VWS V14.01,2013-06-21 21:11:00,
2013-06-21 14:16:00,83.0,45.6,29.92,WNW,283,3.8,5.7,27,0.00,,CLR,0.00,VWS V14.01,2013-06-21 21:16:00,
2013-06-21 14:21:00,83.2,44.8,29.92,SSW,205,3.8,7.6,26,0.00,,CLR,0.00,VWS V14.01,2013-06-21 21:21:00,
2013-06-21 14:26:00,83.3,44.9,29.91,SSW,210,0.0,13.3,26,0.00,,CLR,0.00,VWS V14.01,2013-06-21 21:26:00,
2013-06-21 14:31:00,83.1,43.6,29.91,SE,133,1.9,7.6,25,0.00,,CLR,0.00,VWS V14.01,2013-06-21 21:31:00,
2013-06-21 14:36:00,82.8,43.4,29.91,SW,225,1.9,13.3,25,0.00,,CLR,0.00,VWS V14.01,2013-06-21 21:36:00,
2013-06-21 14:41:00,82.8,43.4,29.91,NW,314,3.8,13.3,25,0.00,,CLR,0.00,VWS V14.01,2013-06-21 21:41:00,
2013-06-21 14:48:00,83.5,44.0,29.91,West,259,3.8,13.3,25,0.00,,CLR,0.00,VWS V14.01,2013-06-21 21:48:00,
2013-06-21 14:53:00,83.8,42.1,29.91,SW,218,3.8,13.3,23,0.00,,CLR,0.00,VWS V14.01,2013-06-21 21:53:00,
2013-06-21 14:58:00,83.8,42.1,29.91,SW,228,1.9,13.3,23,0.00,,CLR,0.00,VWS V14.01,2013-06-21 21:58:00,
2013-06-21 15:03:00,84.0,41.1,29.91,SSW,204,1.9,7.6,22,0.00,,CLR,0.00,VWS V14.01,2013-06-21 22:03:00,
2013-06-21 15:08:00,84.1,42.4,29.91,SE,128,1.9,9.5,23,0.00,,CLR,0.00,VWS V14.01,2013-06-21 22:08:00,
2013-06-21 15:13:00,84.9,41.8,29.90,SW,231,0.0,9.5,22,0.00,,CLR,0.00,VWS V14.01,2013-06-21 22:13:00,
2013-06-21 15:18:00,85.5,41.1,29.90,SE,137,1.9,7.6,21,0.00,,CLR,0.00,VWS V14.01,2013-06-21 22:18:00,
2013-06-21 15:23:00,85.4,41.1,29.90,South,191,3.8,9.5,21,0.00,,CLR,0.00,VWS V14.01,2013-06-21 22:23:00,
2013-06-21 15:28:00,85.1,43.2,29.90,SSW,205,3.8,13.3,23,0.00,,CLR,0.00,VWS V14.01,2013-06-21 22:28:00,
2013-06-21 15:33:00,84.3,42.5,29.90,ESE,112,0.0,11.4,23,0.00,,CLR,0.00,VWS V14.01,2013-06-21 22:33:00,
2013-06-21 15:38:00,84.1,42.4,29.90,East,87,7.6,15.2,23,0.00,,CLR,0.00,VWS V14.01,2013-06-21 22:38:00,
2013-06-21 15:44:00,84.5,43.8,29.89,West,264,0.0,15.2,24,0.00,,CLR,0.00,VWS V14.01,2013-06-21 22:44:00,
2013-06-21 15:49:00,84.7,42.8,29.89,West,271,0.0,7.6,23,0.00,,CLR,0.00,VWS V14.01,2013-06-21 22:49:00,
2013-06-21 15:54:00,84.0,42.2,29.89,SSW,200,0.0,15.2,23,0.00,,CLR,0.00,VWS V14.01,2013-06-21 22:54:00,
2013-06-21 15:59:00,83.9,42.2,29.89,SSW,210,1.9,17.1,23,0.00,,CLR,0.00,VWS V14.01,2013-06-21 22:59:00,
2013-06-21 16:04:00,83.3,41.7,29.89,SSW,211,7.6,13.3,23,0.00,,CLR,0.00,VWS V14.01,2013-06-21 23:04:00,
2013-06-21 16:09:00,83.0,43.6,29.89,SSW,197,1.9,13.3,25,0.00,,CLR,0.00,VWS V14.01,2013-06-21 23:09:00,
2013-06-21 16:14:00,83.3,40.5,29.89,SW,222,3.8,13.3,22,0.00,,CLR,0.00,VWS V14.01,2013-06-21 23:14:00,
2013-06-21 16:19:00,83.2,40.4,29.89,SSW,203,0.0,11.4,22,0.00,,CLR,0.00,VWS V14.01,2013-06-21 23:19:00,
2013-06-21 16:24:00,83.1,42.6,29.89,SW,219,7.6,13.3,24,0.00,,CLR,0.00,VWS V14.01,2013-06-21 23:24:00,
2013-06-21 16:29:00,82.7,42.3,29.89,WSW,245,9.5,13.3,24,0.00,,CLR,0.00,VWS V14.01,2013-06-21 23:29:00,
2013-06-21 16:34:00,82.6,43.3,29.88,SSW,211,1.9,9.5,25,0.00,,CLR,0.00,VWS V14.01,2013-06-21 23:34:00,
2013-06-21 16:39:00,83.0,45.6,29.88,West,264,0.0,9.5,27,0.00,,CLR,0.00,VWS V14.01,2013-06-21 23:39:00,
2013-06-21 16:44:00,83.2,46.7,29.88,East,101,7.6,13.3,28,0.00,,CLR,0.00,VWS V14.01,2013-06-21 23:44:00,
2013-06-21 16:49:00,83.2,47.6,29.88,West,266,1.9,9.5,29,0.00,,CLR,0.00,VWS V14.01,2013-06-21 23:49:00,
2013-06-21 16:54:00,83.2,47.7,29.88,East,93,3.8,11.4,29,0.00,,CLR,0.00,VWS V14.01,2013-06-21 23:54:00,
2013-06-21 16:59:00,82.8,49.1,29.88,ENE,70,1.9,11.4,31,0.00,,CLR,0.00,VWS V14.01,2013-06-21 23:59:00,
2013-06-21 17:04:00,82.4,48.8,29.87,SSW,205,3.8,11.4,31,0.00,,CLR,0.00,VWS V14.01,2013-06-22 00:04:00,
2013-06-21 17:09:00,82.3,47.8,29.87,SW,219,1.9,11.4,30,0.00,,CLR,0.00,VWS V14.01,2013-06-22 00:09:00,
2013-06-21 17:14:00,82.4,47.9,29.87,WSW,252,3.8,3.8,30,0.00,,CLR,0.00,VWS V14.01,2013-06-22 00:14:00,
2013-06-21 17:19:00,82.2,46.8,29.87,North,8,1.9,9.5,29,0.00,,CLR,0.00,VWS V14.01,2013-06-22 00:19:00,
2013-06-21 17:24:00,82.1,47.6,29.87,WSW,256,1.9,9.5,30,0.00,,CLR,0.00,VWS V14.01,2013-06-22 00:24:00,
2013-06-21 17:29:00,82.0,47.5,29.87,WSW,244,3.8,3.8,30,0.00,,CLR,0.00,VWS V14.01,2013-06-22 00:29:00,
2013-06-21 17:35:00,81.9,48.3,29.87,SSW,197,0.0,11.4,31,0.00,,CLR,0.00,VWS V14.01,2013-06-22 00:35:00,
2013-06-21 17:40:00,81.9,48.3,29.86,SE,144,1.9,11.4,31,0.00,,CLR,0.00,VWS V14.01,2013-06-22 00:40:00,
2013-06-21 17:45:00,81.6,47.2,29.86,SSW,198,3.8,3.8,30,0.00,,CLR,0.00,VWS V14.01,2013-06-22 00:45:00,
2013-06-21 17:50:00,81.6,48.1,29.86,SW,226,1.9,7.6,31,0.00,,CLR,0.00,VWS V14.01,2013-06-22 00:50:00,
2013-06-21 17:55:00,81.4,47.9,29.86,SSW,199,3.8,9.5,31,0.00,,CLR,0.00,VWS V14.01,2013-06-22 00:55:00,
2013-06-21 18:00:00,81.3,47.8,29.86,SW,217,3.8,5.7,31,0.00,,CLR,0.00,VWS V14.01,2013-06-22 01:00:00,
2013-06-21 18:05:00,81.1,47.6,29.86,WSW,252,3.8,9.5,31,0.00,,CLR,0.00,VWS V14.01,2013-06-22 01:05:00,
2013-06-21 18:10:00,81.1,47.6,29.86,SSW,207,0.0,9.5,31,0.00,,CLR,0.00,VWS V14.01,2013-06-22 01:10:00,
2013-06-21 18:15:00,81.3,46.9,29.86,SW,225,0.0,1.9,30,0.00,,CLR,0.00,VWS V14.01,2013-06-22 01:15:00,
2013-06-21 18:20:00,81.5,48.0,29.86,WNW,283,0.0,3.8,31,0.00,,CLR,0.00,VWS V14.01,2013-06-22 01:20:00,
2013-06-21 18:25:00,81.8,48.2,29.86,WNW,284,1.9,5.7,31,0.00,,CLR,0.00,VWS V14.01,2013-06-22 01:25:00,
2013-06-21 18:30:00,81.8,47.4,29.86,SW,228,0.0,3.8,30,0.00,,CLR,0.00,VWS V14.01,2013-06-22 01:30:00,
2013-06-21 18:35:00,81.7,47.3,29.86,West,267,1.9,7.6,30,0.00,,CLR,0.00,VWS V14.01,2013-06-22 01:35:00,
2013-06-21 18:40:00,81.5,47.1,29.86,SSW,210,0.0,7.6,30,0.00,,CLR,0.00,VWS V14.01,2013-06-22 01:40:00,
2013-06-21 18:45:00,81.3,47.8,29.86,SSW,212,1.9,1.9,31,0.00,,CLR,0.00,VWS V14.01,2013-06-22 01:45:00,
2013-06-21 18:50:00,81.5,48.8,29.86,SW,221,1.9,3.8,32,0.00,,CLR,0.00,VWS V14.01,2013-06-22 01:50:00,
2013-06-21 18:55:00,81.6,48.9,29.86,SSE,154,1.9,3.8,32,0.00,,CLR,0.00,VWS V14.01,2013-06-22 01:55:00,
2013-06-21 19:00:00,81.8,49.1,29.86,SSW,201,0.0,0.0,32,0.00,,CLR,0.00,VWS V14.01,2013-06-22 02:00:00,
2013-06-21 19:05:00,81.5,48.8,29.86,West,273,1.9,3.8,32,0.00,,CLR,0.00,VWS V14.01,2013-06-22 02:05:00,
2013-06-21 19:10:00,81.3,48.6,29.87,WNW,293,1.9,3.8,32,0.00,,CLR,0.00,VWS V14.01,2013-06-22 02:10:00,
2013-06-21 19:15:00,80.7,49.0,29.87,WNW,291,0.0,0.0,33,0.00,,CLR,0.00,VWS V14.01,2013-06-22 02:15:00,
2013-06-21 19:20:00,80.0,48.3,29.87,WNW,295,1.9,3.8,33,0.00,,CLR,0.00,VWS V14.01,2013-06-22 02:20:00,
2013-06-21 19:25:00,79.2,49.2,29.87,West,276,1.9,3.8,35,0.00,,CLR,0.00,VWS V14.01,2013-06-22 02:25:00,
2013-06-21 19:30:00,79.0,49.8,29.87,WSW,249,0.0,0.0,36,0.00,,CLR,0.00,VWS V14.01,2013-06-22 02:30:00,
2013-06-21 19:35:00,78.9,49.0,29.87,West,269,0.0,1.9,35,0.00,,CLR,0.00,VWS V14.01,2013-06-22 02:35:00,
2013-06-21 19:41:00,78.1,49.0,29.87,West,270,0.0,3.8,36,0.00,,CLR,0.00,VWS V14.01,2013-06-22 02:41:00,
2013-06-21 19:46:00,76.9,49.4,29.87,WNW,283,3.8,7.6,38,0.00,,CLR,0.00,VWS V14.01,2013-06-22 02:46:00,
2013-06-21 19:51:00,75.9,49.2,29.87,SW,227,0.0,7.6,39,0.00,,CLR,0.00,VWS V14.01,2013-06-22 02:51:00,
2013-06-21 19:56:00,75.0,49.7,29.87,West,274,0.0,7.6,41,0.00,,CLR,0.00,VWS V14.01,2013-06-22 02:56:00,
2013-06-21 20:01:00,74.2,49.0,29.87,West,276,0.0,1.9,41,0.00,,CLR,0.00,VWS V14.01,2013-06-22 03:01:00,
2013-06-21 20:06:00,73.2,49.4,29.87,West,277,0.0,1.9,43,0.00,,CLR,0.00,VWS V14.01,2013-06-22 03:06:00,
2013-06-21 20:11:00,72.5,49.4,29.87,WNW,286,0.0,1.9,44,0.00,,CLR,0.00,VWS V14.01,2013-06-22 03:11:00,
2013-06-21 20:16:00,71.9,49.4,29.88,SSW,210,0.0,0.0,45,0.00,,CLR,0.00,VWS V14.01,2013-06-22 03:16:00,
2013-06-21 20:21:00,71.3,49.5,29.88,West,276,1.9,1.9,46,0.00,,CLR,0.00,VWS V14.01,2013-06-22 03:21:00,
2013-06-21 20:26:00,70.6,49.5,29.88,West,276,0.0,1.9,47,0.00,,CLR,0.00,VWS V14.01,2013-06-22 03:26:00,
2013-06-21 20:31:00,70.1,49.5,29.88,West,277,0.0,0.0,48,0.00,,CLR,0.00,VWS V14.01,2013-06-22 03:31:00,
2013-06-21 20:36:00,69.5,48.9,29.88,SSW,205,0.0,1.9,48,0.00,,CLR,0.00,VWS V14.01,2013-06-22 03:36:00,
2013-06-21 20:41:00,68.9,49.0,29.88,SSW,205,0.0,1.9,49,0.00,,CLR,0.00,VWS V14.01,2013-06-22 03:41:00,
2013-06-21 20:46:00,68.3,49.0,29.88,SW,225,0.0,1.9,50,0.00,,CLR,0.00,VWS V14.01,2013-06-22 03:46:00,
2013-06-21 20:51:00,67.8,49.0,29.88,SW,226,0.0,1.9,51,0.00,,CLR,0.00,VWS V14.01,2013-06-22 03:51:00,
2013-06-21 20:56:00,67.3,49.1,29.88,SW,225,0.0,1.9,52,0.00,,CLR,0.00,VWS V14.01,2013-06-22 03:56:00,
2013-06-21 21:01:00,66.8,48.6,29.88,SW,233,0.0,0.0,52,0.00,,CLR,0.00,VWS V14.01,2013-06-22 04:01:00,
2013-06-21 21:02:00,66.8,49.1,29.88,SW,233,0.0,1.9,53,0.00,,CLR,0.00,VWS V14.01,2013-06-22 04:02:00,
2013-06-21 21:03:00,66.6,48.9,29.88,West,264,1.9,1.9,53,0.00,,CLR,0.00,VWS V14.01,2013-06-22 04:03:00,
2013-06-21 21:07:00,66.4,49.3,29.88,West,264,0.0,1.9,54,0.00,,CLR,0.00,VWS V14.01,2013-06-22 04:07:00,
2013-06-21 21:10:00,66.1,49.0,29.88,West,264,0.0,1.9,54,0.00,,CLR,0.00,VWS V14.01,2013-06-22 04:10:00,
2013-06-21 21:15:00,65.8,49.2,29.89,West,264,0.0,0.0,55,0.00,,CLR,0.00,VWS V14.01,2013-06-22 04:15:00,
2013-06-21 21:20:00,65.4,49.3,29.89,West,266,0.0,1.9,56,0.00,,CLR,0.00,VWS V14.01,2013-06-22 04:20:00,
2013-06-21 21:25:00,65.2,49.1,29.89,West,266,0.0,1.9,56,0.00,,CLR,0.00,VWS V14.01,2013-06-22 04:25:00,
2013-06-21 21:30:00,64.8,49.2,29.89,West,266,0.0,0.0,57,0.00,,CLR,0.00,VWS V14.01,2013-06-22 04:30:00,
2013-06-21 21:35:00,64.4,49.3,29.89,West,265,0.0,0.0,58,0.00,,CLR,0.00,VWS V14.01,2013-06-22 04:35:00,
2013-06-21 21:40:00,64.0,48.9,29.90,West,266,0.0,0.0,58,0.00,,CLR,0.00,VWS V14.01,2013-06-22 04:40:00,
2013-06-21 21:45:00,63.8,49.2,29.90,West,266,0.0,1.9,59,0.00,,CLR,0.00,VWS V14.01,2013-06-22 04:45:00,
2013-06-21 21:50:00,63.8,49.2,29.90,West,266,0.0,1.9,59,0.00,,CLR,0.00,VWS V14.01,2013-06-22 04:50:00,
2013-06-21 21:55:00,63.6,49.5,29.90,West,266,0.0,1.9,60,0.00,,CLR,0.00,VWS V14.01,2013-06-22 04:55:00,
2013-06-21 22:00:00,63.3,49.2,29.90,West,266,0.0,0.0,60,0.00,,CLR,0.00,VWS V14.01,2013-06-22 05:00:00,
2013-06-21 22:05:00,63.3,49.2,29.90,West,266,0.0,0.0,60,0.00,,CLR,0.00,VWS V14.01,2013-06-22 05:05:00,
2013-06-21 22:11:00,63.1,49.0,29.90,West,266,0.0,1.9,60,0.00,,CLR,0.00,VWS V14.01,2013-06-22 05:11:00,
2013-06-21 22:16:00,62.9,49.3,29.91,West,266,0.0,0.0,61,0.00,,CLR,0.00,VWS V14.01,2013-06-22 05:16:00,
2013-06-21 22:21:00,62.5,48.9,29.91,West,266,0.0,1.9,61,0.00,,CLR,0.00,VWS V14.01,2013-06-22 05:21:00,
2013-06-21 22:26:00,62.4,48.8,29.91,West,277,0.0,3.8,61,0.00,,CLR,0.00,VWS V14.01,2013-06-22 05:26:00,
2013-06-21 22:31:00,62.0,48.4,29.91,West,278,1.9,1.9,61,0.00,,CLR,0.00,VWS V14.01,2013-06-22 05:31:00,
2013-06-21 22:36:00,61.7,48.6,29.91,West,276,0.0,1.9,62,0.00,,CLR,0.00,VWS V14.01,2013-06-22 05:36:00,
2013-06-21 22:41:00,61.4,48.2,29.91,West,276,0.0,1.9,62,0.00,,CLR,0.00,VWS V14.01,2013-06-22 05:41:00,
2013-06-21 22:46:00,61.2,48.5,29.91,West,276,0.0,0.0,63,0.00,,CLR,0.00,VWS V14.01,2013-06-22 05:46:00,
2013-06-21 22:51:00,60.9,48.2,29.91,West,270,3.8,3.8,63,0.00,,CLR,0.00,VWS V14.01,2013-06-22 05:51:00,
2013-06-21 22:56:00,60.7,48.1,29.91,West,270,0.0,3.8,63,0.00,,CLR,0.00,VWS V14.01,2013-06-22 05:56:00,
2013-06-21 23:01:00,60.5,48.2,29.91,West,271,0.0,1.9,64,0.00,,CLR,0.00,VWS V14.01,2013-06-22 06:01:00,
2013-06-21 23:06:00,60.3,48.5,29.91,West,270,0.0,1.9,65,0.00,,CLR,0.00,VWS V14.01,2013-06-22 06:06:00,
2013-06-21 23:11:00,60.3,48.5,29.91,West,272,0.0,1.9,65,0.00,,CLR,0.00,VWS V14.01,2013-06-22 06:11:00,
2013-06-21 23:16:00,60.1,48.3,29.91,West,273,0.0,0.0,65,0.00,,CLR,0.00,VWS V14.01,2013-06-22 06:16:00,
2013-06-21 23:21:00,59.8,48.0,29.91,WSW,252,0.0,1.9,65,0.00,,CLR,0.00,VWS V14.01,2013-06-22 06:21:00,
2013-06-21 23:26:00,59.4,48.0,29.91,WSW,252,0.0,1.9,66,0.00,,CLR,0.00,VWS V14.01,2013-06-22 06:26:00,
2013-06-21 23:31:00,59.2,47.9,29.91,WSW,252,0.0,0.0,66,0.00,,CLR,0.00,VWS V14.01,2013-06-22 06:31:00,
2013-06-21 23:36:00,58.8,47.9,29.91,WSW,252,0.0,0.0,67,0.00,,CLR,0.00,VWS V14.01,2013-06-22 06:36:00,
2013-06-21 23:41:00,58.7,48.2,29.91,WSW,251,0.0,0.0,68,0.00,,CLR,0.00,VWS V14.01,2013-06-22 06:41:00,
2013-06-21 23:46:00,58.6,48.1,29.91,WSW,252,0.0,0.0,68,0.00,,CLR,0.00,VWS V14.01,2013-06-22 06:46:00,
2013-06-21 23:51:00,58.3,48.2,29.91,WSW,252,0.0,0.0,69,0.00,,CLR,0.00,VWS V14.01,2013-06-22 06:51:00,
2013-06-21 23:56:00,58.2,48.1,29.91,WSW,252,0.0,0.0,69,0.00,,CLR,0.00,VWS V14.01,2013-06-22 06:56:00,